Faringdon, United Kingdom
Current Conditions -  °F | °C
As of 5:19 AM on Friday 31 Oct 2014 (Local Time) from EGVN Reporting Station
Haze Haze  
Wind Chill: 13°   Ceiling: 24000
Heat Index: 13°   Visibility: 0.93mi
Dew Point: 13°   Wind: 2mph
Humidity: 100%   Direction: 160°SSE
Pressure: 30"   Gusts: NA
Location:  51.66°N, 1.59°W
Report Text: EGVN 310519Z 16002KT 1500 BR BKN240 13/13 Q1016 AMB NOSIG
Loading
Personal Weather Stations






























Interactive Weather Map
Tropical Storm Tracking
New forecast layout! Learn more

10-Day Weather Forecast

Advertisements
Track Severe Weather on mobile